< Cyclone 200107 2001 Season Cyclone 200201 >
Cyclone 200108 (ALISTAIR)
General InformationTrack Information on Google MapsDetailed Wind InformationList of All Images || ResourceGoogle EarthGE AnimationAtom FeedGeoJSON
Detalied Best Track (Time Zone = UTC)
Year Month Day Hour Lat. Long. Pressure (hPa) Wind (kt) Class Image Chart
2001 4 15 12 -7.4 137.0 1008 0 0 Image --
2001 4 16 00 -8.1 135.5 1003 23 2 Image --
2001 4 16 06 -8.9 134.0 1000 27 2 Image --
2001 4 16 12 -9.4 133.5 1000 27 2 Image --
2001 4 16 18 -9.9 132.8 995 35 3 Image --
2001 4 16 19 -10.1 132.8 995 35 3 Image --
2001 4 16 22 -10.1 132.3 995 35 3 Image --
2001 4 17 01 -10.3 131.4 990 41 3 Image --
2001 4 17 04 -10.3 131.0 990 41 3 Image --
2001 4 17 07 -10.7 130.5 990 41 3 Image --
2001 4 17 10 -11.1 130.0 990 41 3 Image --
2001 4 17 16 -11.6 128.7 990 41 3 Image --
2001 4 17 22 -12.4 127.2 985 49 4 Image --
2001 4 18 00 -12.6 126.9 985 49 4 Image --
2001 4 18 05 -13.5 126.0 985 49 4 Image --
2001 4 18 10 -14.2 124.5 980 54 4 Image --
2001 4 18 16 -14.8 123.3 975 60 4 Image --
2001 4 18 22 -15.4 122.4 975 60 4 Image --
2001 4 19 04 -16.3 121.1 975 60 4 Image --
2001 4 19 10 -17.1 120.0 980 54 4 Image --
2001 4 19 16 -17.1 118.4 980 54 4 Image --
2001 4 19 22 -17.3 117.6 985 49 4 Image --
2001 4 20 01 -17.8 116.0 985 49 4 Image --
2001 4 20 04 -18.0 115.3 990 41 3 Image --
2001 4 20 07 -18.3 114.6 990 41 3 Image --
2001 4 20 10 -18.7 113.9 990 41 3 Image --
2001 4 20 13 -19.2 113.3 990 41 3 Image --
2001 4 20 16 -19.5 112.7 990 41 3 Image --
2001 4 20 22 -19.8 112.1 990 41 3 Image --
2001 4 21 01 -20.0 111.6 990 41 3 Image --
2001 4 21 04 -20.3 111.1 990 41 3 Image --
2001 4 21 07 -20.7 110.6 990 41 3 Image --
2001 4 21 10 -20.8 110.3 990 41 3 Image --
2001 4 21 13 -21.0 110.1 990 41 3 Image --
2001 4 21 16 -21.1 109.9 990 41 3 Image --
2001 4 21 19 -21.3 109.6 990 41 3 Image --
2001 4 21 22 -21.5 109.4 990 41 3 Image --
2001 4 22 01 -21.8 109.2 990 41 3 Image --
2001 4 22 04 -22.1 108.9 990 41 3 Image --
2001 4 22 07 -22.5 108.9 990 41 3 Image --
2001 4 22 10 -22.8 109.0 990 41 3 Image --
2001 4 22 13 -23.1 109.2 990 41 3 Image --
2001 4 22 16 -23.3 109.3 990 41 3 Image --
2001 4 22 19 -23.5 109.4 990 41 3 Image --
2001 4 22 22 -23.8 109.5 990 41 3 Image --
2001 4 23 01 -24.1 109.6 990 41 3 Image --
2001 4 23 04 -24.2 110.0 990 41 3 Image --
2001 4 23 07 -24.2 110.4 990 41 3 Image --
2001 4 23 10 -24.2 111.0 990 41 3 Image --
2001 4 23 13 -24.2 111.6 990 41 3 Image --
2001 4 23 16 -24.3 112.3 998 29 2 Image --
2001 4 23 19 -24.4 113.1 998 29 2 Image --
2001 4 23 22 -24.6 114.0 1000 27 2 Image --
< Cyclone 200107 2001 Season Cyclone 200201 >

Help